Time;durP1;ratioP1;P1;durP2;ratioP2;P2;SDS_P1;SDS_P2;PMS_P1;PMS_P2;Temp;Humidity;BMP_temperature;BMP_pressure;BME280_temperature;BME280_humidity;BME280_pressure;Samples;Min_cycle;Max_cycle;Signal;HPM_P1;HPM_P2
2023/09/08 00:00:01;;;;;;;20.92;8.35;;;27.30;55.50;;;;;;352306;28;971;-57
2023/09/08 00:00:12;;;;;;;20.25;8.38;;;27.30;55.60;;;;;;352397;28;1003;-56
2023/09/08 00:00:23;;;;;;;21.00;8.38;;;27.30;55.50;;;;;;352241;28;1526;-56
2023/09/08 00:00:34;;;;;;;19.88;7.82;;;27.30;55.40;;;;;;352407;28;953;-56
2023/09/08 00:00:46;;;;;;;17.92;7.40;;;27.30;55.40;;;;;;352220;28;1182;-56
2023/09/08 00:00:57;;;;;;;19.25;7.63;;;27.30;55.40;;;;;;352349;28;1057;-56
2023/09/08 00:01:08;;;;;;;20.83;8.13;;;27.30;55.30;;;;;;352342;28;1003;-57
2023/09/08 00:01:19;;;;;;;19.40;7.97;;;27.30;55.40;;;;;;352355;28;1399;-55
2023/09/08 00:01:31;;;;;;;20.25;7.97;;;27.30;55.30;;;;;;352388;28;897;-55
2023/09/08 00:01:41;;;;;;;20.52;7.97;;;27.30;55.30;;;;;;352413;28;844;-56
2023/09/08 00:01:52;;;;;;;20.90;7.82;;;27.40;55.40;;;;;;352318;28;995;-56
2023/09/08 00:02:03;;;;;;;18.58;7.43;;;27.30;55.30;;;;;;352337;28;1099;-55
2023/09/08 00:02:13;;;;;;;17.75;7.18;;;27.30;55.10;;;;;;352266;28;1456;-56
2023/09/08 00:02:25;;;;;;;21.70;7.80;;;27.30;55.00;;;;;;352393;28;1017;-56
2023/09/08 00:02:36;;;;;;;22.70;7.70;;;27.30;55.00;;;;;;352307;28;1015;-55
2023/09/08 00:02:47;;;;;;;21.48;7.55;;;27.30;55.00;;;;;;352347;28;1086;-55
2023/09/08 00:02:57;;;;;;;19.20;7.07;;;27.40;54.90;;;;;;352373;28;898;-56
2023/09/08 00:03:08;;;;;;;21.77;7.23;;;27.30;54.90;;;;;;352388;28;1018;-56
2023/09/08 00:03:21;;;;;;;23.02;7.10;;;27.40;54.70;;;;;;352326;28;1461;-56
2023/09/08 00:03:32;;;;;;;22.13;6.97;;;27.30;54.50;;;;;;352288;28;1030;-56
2023/09/08 00:03:43;;;;;;;20.52;6.95;;;27.30;54.40;;;;;;352357;28;1131;-56
2023/09/08 00:03:53;;;;;;;21.63;7.22;;;27.30;54.20;;;;;;352409;28;944;-56
2023/09/08 00:04:04;;;;;;;20.40;7.03;;;27.30;54.40;;;;;;352262;28;1364;-56
2023/09/08 00:04:15;;;;;;;22.83;7.43;;;27.30;54.30;;;;;;352361;28;1939;-57
2023/09/08 00:04:26;;;;;;;21.20;7.63;;;27.30;54.30;;;;;;352365;28;1015;-56
2023/09/08 00:04:36;;;;;;;19.17;7.78;;;27.30;54.20;;;;;;352313;28;1002;-56
2023/09/08 00:04:47;;;;;;;17.58;7.63;;;27.30;54.30;;;;;;352420;28;1026;-56
2023/09/08 00:04:58;;;;;;;16.57;7.57;;;27.30;54.50;;;;;;352358;28;1078;-56
2023/09/08 00:05:09;;;;;;;16.70;7.32;;;27.30;54.60;;;;;;352353;28;975;-56
2023/09/08 00:05:19;;;;;;;16.75;7.47;;;27.40;54.60;;;;;;352325;28;1083;-56
2023/09/08 00:05:30;;;;;;;19.77;7.70;;;27.30;54.60;;;;;;352408;28;1812;-55
2023/09/08 00:05:41;;;;;;;20.03;8.23;;;27.30;54.40;;;;;;352324;28;1087;-56
2023/09/08 00:05:52;;;;;;;20.02;7.88;;;27.30;54.30;;;;;;352331;28;1441;-56
2023/09/08 00:06:04;;;;;;;18.97;7.77;;;27.30;54.40;;;;;;352446;28;952;-56
2023/09/08 00:06:15;;;;;;;17.52;7.40;;;27.30;54.10;;;;;;352295;28;1069;-56
2023/09/08 00:06:25;;;;;;;16.95;7.43;;;27.30;54.00;;;;;;352372;28;1545;-55
2023/09/08 00:06:36;;;;;;;17.98;7.75;;;27.30;54.00;;;;;;352414;28;891;-55
2023/09/08 00:06:47;;;;;;;18.00;7.57;;;27.40;54.00;;;;;;352390;28;904;-56
2023/09/08 00:06:57;;;;;;;16.85;7.40;;;27.30;53.80;;;;;;352427;28;873;-56
2023/09/08 00:07:08;;;;;;;17.33;7.40;;;27.40;53.90;;;;;;352428;28;1038;-56
2023/09/08 00:07:19;;;;;;;18.75;7.95;;;27.40;53.80;;;;;;352192;28;1566;-55
2023/09/08 00:07:30;;;;;;;17.58;7.57;;;27.30;53.80;;;;;;352388;28;1233;-55
2023/09/08 00:07:40;;;;;;;15.80;7.40;;;27.40;53.60;;;;;;352416;28;789;-57
2023/09/08 00:07:51;;;;;;;17.13;7.35;;;27.30;53.80;;;;;;352318;28;967;-56
2023/09/08 00:08:02;;;;;;;19.42;7.82;;;27.40;53.80;;;;;;352362;28;1011;-56
2023/09/08 00:08:13;;;;;;;20.40;8.02;;;27.30;53.90;;;;;;352357;28;1034;-56
2023/09/08 00:08:24;;;;;;;20.70;7.93;;;27.30;53.80;;;;;;352249;28;1083;-56
2023/09/08 00:08:34;;;;;;;19.70;7.90;;;27.40;53.80;;;;;;352374;28;1417;-56
2023/09/08 00:08:45;;;;;;;16.70;7.20;;;27.30;53.70;;;;;;352387;28;945;-56
2023/09/08 00:08:56;;;;;;;18.63;7.22;;;27.30;53.80;;;;;;352331;28;1108;-56
2023/09/08 00:09:07;;;;;;;20.97;7.53;;;27.40;53.90;;;;;;352344;28;969;-56
2023/09/08 00:09:18;;;;;;;25.77;8.48;;;27.40;54.00;;;;;;352367;28;1011;-55
2023/09/08 00:09:28;;;;;;;24.50;8.50;;;27.30;54.20;;;;;;352353;28;1186;-56
2023/09/08 00:09:39;;;;;;;23.90;8.50;;;27.30;54.40;;;;;;352465;28;975;-56
2023/09/08 00:09:50;;;;;;;19.50;8.02;;;27.30;54.30;;;;;;352419;28;983;-55
2023/09/08 00:10:00;;;;;;;18.85;8.25;;;27.30;54.20;;;;;;352298;28;1575;-56
2023/09/08 00:10:12;;;;;;;18.67;8.17;;;27.30;54.10;;;;;;352376;28;971;-55
2023/09/08 00:10:22;;;;;;;19.65;7.95;;;27.30;54.10;;;;;;352425;28;927;-56
2023/09/08 00:10:33;;;;;;;18.48;7.55;;;27.40;54.40;;;;;;352332;28;1025;-56
2023/09/08 00:10:44;;;;;;;20.15;7.82;;;27.30;54.70;;;;;;352407;28;899;-56
2023/09/08 00:10:54;;;;;;;18.83;8.13;;;27.30;54.70;;;;;;352350;28;1276;-56
2023/09/08 00:11:07;;;;;;;20.60;8.37;;;27.30;54.60;;;;;;352315;28;1542;-56
2023/09/08 00:11:17;;;;;;;21.60;9.15;;;27.30;54.40;;;;;;352422;28;840;-56
2023/09/08 00:11:28;;;;;;;23.07;9.93;;;27.30;54.40;;;;;;352430;28;872;-57
2023/09/08 00:11:39;;;;;;;23.83;10.10;;;27.30;54.40;;;;;;352340;28;1021;-54
2023/09/08 00:11:49;;;;;;;22.10;10.02;;;27.30;54.30;;;;;;352407;28;1086;-57
2023/09/08 00:12:01;;;;;;;20.43;9.57;;;27.30;54.40;;;;;;352365;28;1149;-57
2023/09/08 00:12:11;;;;;;;21.25;10.18;;;27.40;54.50;;;;;;352352;28;1015;-55
2023/09/08 00:12:22;;;;;;;21.67;10.35;;;27.30;54.50;;;;;;352394;28;1022;-56
2023/09/08 00:12:33;;;;;;;22.30;11.00;;;27.30;54.50;;;;;;352438;28;1003;-56
2023/09/08 00:12:43;;;;;;;23.00;10.82;;;27.30;54.60;;;;;;352238;28;1087;-56
2023/09/08 00:12:54;;;;;;;23.17;10.27;;;27.30;54.60;;;;;;352360;28;1497;-55
2023/09/08 00:13:05;;;;;;;25.17;10.20;;;27.30;54.50;;;;;;352383;28;789;-57
2023/09/08 00:13:16;;;;;;;23.40;10.25;;;27.30;54.40;;;;;;352396;28;1074;-55
2023/09/08 00:13:26;;;;;;;22.50;10.20;;;27.30;54.40;;;;;;352273;28;1551;-57
2023/09/08 00:13:39;;;;;;;20.40;9.70;;;27.30;54.50;;;;;;352355;28;964;-55
2023/09/08 00:13:50;;;;;;;21.67;9.88;;;27.30;54.60;;;;;;352441;28;911;-54
2023/09/08 00:14:01;;;;;;;20.60;9.93;;;27.30;54.50;;;;;;352354;28;1299;-56
2023/09/08 00:14:11;;;;;;;23.70;10.00;;;27.30;54.50;;;;;;352284;28;1400;-56
2023/09/08 00:14:22;;;;;;;23.27;9.85;;;27.30;54.50;;;;;;352469;28;860;-57
2023/09/08 00:14:33;;;;;;;24.67;9.67;;;27.30;54.60;;;;;;352320;28;1918;-56
2023/09/08 00:14:44;;;;;;;23.88;9.45;;;27.30;54.60;;;;;;352394;28;816;-56
2023/09/08 00:14:54;;;;;;;23.30;9.05;;;27.30;54.50;;;;;;352329;28;1030;-57
2023/09/08 00:15:07;;;;;;;20.83;8.70;;;27.30;54.40;;;;;;352393;28;1057;-56
2023/09/08 00:15:17;;;;;;;21.60;9.10;;;27.30;54.40;;;;;;352392;28;936;-56
2023/09/08 00:15:28;;;;;;;22.40;8.68;;;27.30;54.40;;;;;;352448;28;833;-56
2023/09/08 00:15:39;;;;;;;21.17;8.47;;;27.40;54.50;;;;;;352320;28;1022;-57
2023/09/08 00:15:49;;;;;;;20.17;8.23;;;27.30;54.50;;;;;;352292;28;1580;-56
2023/09/08 00:16:00;;;;;;;20.02;8.27;;;27.30;54.50;;;;;;352427;28;1186;-56
2023/09/08 00:16:11;;;;;;;20.42;8.63;;;27.30;54.70;;;;;;352417;28;894;-57
2023/09/08 00:16:22;;;;;;;20.60;8.43;;;27.30;55.10;;;;;;352315;28;1045;-55
2023/09/08 00:16:33;;;;;;;17.60;8.52;;;27.40;55.40;;;;;;352413;28;1038;-55
2023/09/08 00:16:44;;;;;;;16.67;8.50;;;27.30;55.20;;;;;;352340;28;1130;-56
2023/09/08 00:16:54;;;;;;;18.95;8.88;;;27.30;54.90;;;;;;352346;28;1095;-56
2023/09/08 00:17:05;;;;;;;22.05;9.07;;;27.30;54.80;;;;;;352256;28;1174;-56
2023/09/08 00:17:16;;;;;;;22.15;8.68;;;27.30;54.80;;;;;;352385;28;1514;-56
2023/09/08 00:17:26;;;;;;;22.17;8.33;;;27.30;55.00;;;;;;352393;28;829;-56
2023/09/08 00:17:37;;;;;;;21.73;7.88;;;27.40;55.10;;;;;;352387;28;1046;-59
2023/09/08 00:17:48;;;;;;;22.10;8.30;;;27.40;54.90;;;;;;352323;28;1359;-55
2023/09/08 00:17:59;;;;;;;21.02;8.27;;;27.30;54.80;;;;;;352334;28;1079;-55
2023/09/08 00:18:09;;;;;;;21.00;8.43;;;27.40;55.00;;;;;;352400;28;947;-56
2023/09/08 00:18:20;;;;;;;18.13;7.63;;;27.30;55.10;;;;;;352331;28;1560;-57
2023/09/08 00:18:31;;;;;;;17.38;7.32;;;27.30;55.40;;;;;;352317;28;1207;-56
2023/09/08 00:18:41;;;;;;;18.90;7.50;;;27.30;55.80;;;;;;352321;28;999;-55
2023/09/08 00:18:52;;;;;;;21.07;7.87;;;27.30;56.20;;;;;;352386;28;1312;-57
2023/09/08 00:19:03;;;;;;;19.90;8.13;;;27.30;56.20;;;;;;352329;28;1382;-56
2023/09/08 00:19:14;;;;;;;20.52;8.82;;;27.30;56.40;;;;;;352393;28;1042;-56
2023/09/08 00:19:24;;;;;;;18.95;9.00;;;27.30;56.60;;;;;;352357;28;1067;-56
2023/09/08 00:19:35;;;;;;;20.10;8.83;;;27.30;56.70;;;;;;352381;28;1362;-55
2023/09/08 00:19:46;;;;;;;20.30;8.38;;;27.30;56.90;;;;;;352404;28;1074;-55
2023/09/08 00:19:57;;;;;;;21.55;8.50;;;27.30;57.20;;;;;;352407;28;919;-55
2023/09/08 00:20:09;;;;;;;21.90;8.38;;;27.30;57.20;;;;;;352373;28;1651;-56
2023/09/08 00:20:19;;;;;;;23.33;8.30;;;27.30;57.10;;;;;;352298;28;1852;-55
2023/09/08 00:20:30;;;;;;;23.57;8.30;;;27.30;57.10;;;;;;352381;28;967;-56
2023/09/08 00:20:41;;;;;;;23.73;8.05;;;27.30;56.80;;;;;;352443;28;1015;-55
2023/09/08 00:20:52;;;;;;;22.63;7.95;;;27.20;56.80;;;;;;352353;28;1106;-56
2023/09/08 00:21:03;;;;;;;21.30;7.63;;;27.30;56.60;;;;;;352304;28;1115;-56
2023/09/08 00:21:14;;;;;;;19.70;7.68;;;27.20;56.30;;;;;;352369;28;871;-56
2023/09/08 00:21:25;;;;;;;18.38;7.50;;;27.20;56.00;;;;;;352411;28;1011;-56
2023/09/08 00:21:37;;;;;;;18.08;7.55;;;27.20;55.50;;;;;;352421;28;1070;-55
2023/09/08 00:21:47;;;;;;;16.58;7.75;;;27.20;55.60;;;;;;352340;28;940;-56
2023/09/08 00:21:58;;;;;;;18.77;8.30;;;27.20;55.60;;;;;;352411;28;924;-57
2023/09/08 00:22:09;;;;;;;20.17;8.43;;;27.20;55.60;;;;;;352376;28;992;-56
2023/09/08 00:22:19;;;;;;;21.58;8.60;;;27.20;55.70;;;;;;352326;28;1174;-56
2023/09/08 00:22:30;;;;;;;18.35;8.27;;;27.20;55.80;;;;;;352286;28;1601;-56
2023/09/08 00:22:41;;;;;;;17.73;7.97;;;27.20;55.70;;;;;;352349;28;1015;-56
2023/09/08 00:22:51;;;;;;;17.67;8.15;;;27.20;55.70;;;;;;352530;28;891;-56
2023/09/08 00:23:02;;;;;;;18.98;8.77;;;27.20;55.70;;;;;;352668;28;960;-56
2023/09/08 00:23:13;;;;;;;21.10;9.38;;;27.20;55.70;;;;;;352587;28;1417;-56
2023/09/08 00:23:24;;;;;;;22.13;9.50;;;27.20;55.60;;;;;;352670;28;1401;-56
2023/09/08 00:24:23;;;;;;;20.60;8.75;;;27.20;55.90;;;;;;352632;28;1091;-56
2023/09/08 00:24:34;;;;;;;26.38;9.25;;;27.20;56.10;;;;;;352547;28;948;-56
2023/09/08 00:24:44;;;;;;;24.50;9.30;;;27.20;56.00;;;;;;352681;28;1340;-56
2023/09/08 00:24:55;;;;;;;24.58;9.20;;;27.20;56.00;;;;;;352674;28;971;-55
2023/09/08 00:25:06;;;;;;;19.92;8.20;;;27.20;56.10;;;;;;352658;28;921;-56
2023/09/08 00:25:17;;;;;;;20.30;8.10;;;27.20;55.80;;;;;;352695;28;1011;-56
2023/09/08 00:25:28;;;;;;;20.07;7.97;;;27.20;55.90;;;;;;352619;28;1115;-56
2023/09/08 00:25:38;;;;;;;20.88;8.32;;;27.10;56.00;;;;;;352702;28;1018;-56
2023/09/08 00:25:49;;;;;;;21.05;8.82;;;27.20;56.10;;;;;;352644;28;1374;-56
2023/09/08 00:26:00;;;;;;;21.00;9.30;;;27.20;56.00;;;;;;352684;28;1034;-56
2023/09/08 00:26:11;;;;;;;20.70;9.53;;;27.20;56.00;;;;;;352568;28;1446;-55
2023/09/08 00:26:21;;;;;;;22.23;9.73;;;27.20;55.80;;;;;;352619;28;1145;-55
2023/09/08 00:26:32;;;;;;;20.85;9.70;;;27.10;55.60;;;;;;352714;28;820;-55
2023/09/08 00:26:43;;;;;;;20.23;9.90;;;27.10;55.80;;;;;;352596;28;1166;-55
2023/09/08 00:26:54;;;;;;;19.35;10.15;;;27.20;55.80;;;;;;352691;28;841;-56
2023/09/08 00:27:04;;;;;;;19.40;10.00;;;27.20;55.80;;;;;;352654;28;1014;-57
2023/09/08 00:27:15;;;;;;;19.42;9.68;;;27.10;55.80;;;;;;352545;28;1102;-56
2023/09/08 00:27:26;;;;;;;19.58;9.27;;;27.10;55.80;;;;;;352691;28;1011;-56
2023/09/08 00:27:37;;;;;;;20.93;9.27;;;27.10;55.90;;;;;;352690;28;1065;-56
2023/09/08 00:27:47;;;;;;;20.40;8.57;;;27.10;55.90;;;;;;352667;28;1914;-55
2023/09/08 00:27:58;;;;;;;17.60;8.20;;;27.20;55.80;;;;;;352704;28;1778;-56
2023/09/08 00:28:08;;;;;;;16.33;7.82;;;27.10;55.90;;;;;;352576;28;1134;-56
2023/09/08 00:28:19;;;;;;;14.90;7.80;;;27.10;56.00;;;;;;352698;28;1304;-56
2023/09/08 00:28:30;;;;;;;17.60;8.00;;;27.10;56.30;;;;;;352648;28;1398;-56
2023/09/08 00:28:41;;;;;;;20.02;8.27;;;27.10;56.70;;;;;;352619;28;1008;-56
2023/09/08 00:28:51;;;;;;;21.47;8.50;;;27.10;56.90;;;;;;352698;28;1007;-56
2023/09/08 00:29:02;;;;;;;21.63;8.55;;;27.10;57.00;;;;;;352558;28;1091;-56
2023/09/08 00:29:13;;;;;;;22.45;8.73;;;27.10;57.10;;;;;;352668;28;1110;-56
2023/09/08 00:29:23;;;;;;;23.03;8.97;;;27.10;57.20;;;;;;352682;28;979;-56
2023/09/08 00:29:34;;;;;;;20.50;8.60;;;27.10;57.50;;;;;;352632;28;1002;-56
2023/09/08 00:29:45;;;;;;;19.85;8.40;;;27.10;57.60;;;;;;352655;28;1011;-56
2023/09/08 00:29:55;;;;;;;19.33;8.18;;;27.10;57.60;;;;;;352626;28;987;-55
2023/09/08 00:30:07;;;;;;;20.20;8.87;;;27.10;57.60;;;;;;352582;28;1229;-55
2023/09/08 00:30:17;;;;;;;21.02;9.25;;;27.10;57.50;;;;;;352590;28;1647;-56
2023/09/08 00:30:28;;;;;;;23.20;9.57;;;27.10;57.40;;;;;;352623;28;1020;-55
2023/09/08 00:30:39;;;;;;;22.33;8.75;;;27.10;57.20;;;;;;352616;28;880;-56
2023/09/08 00:30:49;;;;;;;21.35;8.05;;;27.10;57.00;;;;;;352625;28;899;-56
2023/09/08 00:31:01;;;;;;;21.27;7.93;;;27.10;56.90;;;;;;352648;28;842;-56
2023/09/08 00:31:11;;;;;;;21.08;8.02;;;27.10;56.70;;;;;;352682;28;1055;-55
2023/09/08 00:31:22;;;;;;;21.70;8.27;;;27.10;56.60;;;;;;352706;28;1024;-56
2023/09/08 00:31:33;;;;;;;20.00;7.75;;;27.10;56.60;;;;;;352700;28;1795;-55
2023/09/08 00:31:44;;;;;;;19.25;7.70;;;27.10;56.70;;;;;;352625;28;1060;-56
2023/09/08 00:31:54;;;;;;;17.48;7.93;;;27.10;56.80;;;;;;352679;28;1130;-55
2023/09/08 00:32:05;;;;;;;20.23;8.30;;;27.10;56.90;;;;;;352674;28;936;-56
2023/09/08 00:32:16;;;;;;;21.30;8.50;;;27.10;57.10;;;;;;352634;28;1050;-56
2023/09/08 00:32:27;;;;;;;22.77;9.10;;;27.10;57.10;;;;;;352448;28;1305;-56
2023/09/08 00:32:38;;;;;;;22.77;9.30;;;27.10;56.90;;;;;;352598;28;1098;-56
2023/09/08 00:32:48;;;;;;;22.55;8.95;;;27.10;56.80;;;;;;352667;28;900;-56
2023/09/08 00:32:59;;;;;;;23.40;9.30;;;27.10;56.80;;;;;;352659;28;895;-55
2023/09/08 00:33:12;;;;;;;23.40;9.67;;;27.10;56.90;;;;;;352596;28;1038;-56
2023/09/08 00:33:23;;;;;;;23.77;10.73;;;27.10;56.90;;;;;;352655;28;1065;-56
2023/09/08 00:33:33;;;;;;;23.80;11.05;;;27.10;56.90;;;;;;352570;28;1024;-56
2023/09/08 00:33:44;;;;;;;22.52;11.50;;;27.10;56.90;;;;;;352678;28;1018;-56
2023/09/08 00:33:55;;;;;;;22.42;11.43;;;27.10;57.00;;;;;;352697;28;864;-56
2023/09/08 00:34:06;;;;;;;22.05;11.32;;;27.10;57.00;;;;;;352687;28;959;-56
2023/09/08 00:34:17;;;;;;;23.35;11.40;;;27.10;56.70;;;;;;352677;27;935;-55
2023/09/08 00:34:28;;;;;;;24.13;11.57;;;27.10;56.80;;;;;;352649;28;1090;-55
2023/09/08 00:34:40;;;;;;;24.85;11.48;;;27.10;56.90;;;;;;352651;28;1964;-56
2023/09/08 00:34:51;;;;;;;24.00;11.27;;;27.10;56.70;;;;;;352569;28;1126;-56
2023/09/08 00:35:02;;;;;;;24.52;11.20;;;27.10;56.60;;;;;;352633;28;974;-56
2023/09/08 00:35:13;;;;;;;23.65;10.77;;;27.10;56.50;;;;;;352656;28;820;-54
2023/09/08 00:35:23;;;;;;;25.13;10.23;;;27.10;56.60;;;;;;352572;28;906;-55
2023/09/08 00:35:35;;;;;;;23.90;9.40;;;27.10;56.50;;;;;;352644;28;880;-56
2023/09/08 00:35:49;;;;;;;21.27;8.35;;;27.10;56.30;;;;;;352632;28;1181;-56
2023/09/08 00:36:00;;;;;;;15.77;7.40;;;27.00;56.30;;;;;;352638;28;1062;-56
2023/09/08 00:36:11;;;;;;;16.48;7.43;;;27.10;56.50;;;;;;352608;28;1075;-56
2023/09/08 00:36:22;;;;;;;17.92;7.82;;;27.00;56.50;;;;;;352597;28;1019;-56
2023/09/08 00:36:32;;;;;;;21.50;7.83;;;27.00;56.70;;;;;;352600;28;1475;-56
2023/09/08 00:36:43;;;;;;;19.90;7.57;;;27.00;56.80;;;;;;352566;28;1222;-56
2023/09/08 00:36:54;;;;;;;19.20;7.53;;;27.00;57.00;;;;;;352630;28;1305;-56
2023/09/08 00:37:07;;;;;;;19.75;7.60;;;27.00;57.10;;;;;;352704;28;836;-56
2023/09/08 00:37:17;;;;;;;19.48;7.32;;;27.10;57.20;;;;;;352650;28;890;-56
2023/09/08 00:37:28;;;;;;;19.23;7.70;;;27.00;57.20;;;;;;352727;28;829;-56
2023/09/08 00:37:40;;;;;;;19.52;7.80;;;27.00;57.50;;;;;;352723;28;987;-56
2023/09/08 00:37:51;;;;;;;21.40;8.32;;;27.00;57.60;;;;;;352692;28;908;-55
2023/09/08 00:38:02;;;;;;;23.35;8.05;;;27.00;57.80;;;;;;352676;28;1526;-56
2023/09/08 00:38:12;;;;;;;21.95;8.35;;;27.00;58.10;;;;;;352601;28;1018;-55
2023/09/08 00:38:23;;;;;;;20.97;8.47;;;27.00;58.30;;;;;;352680;28;1074;-56
2023/09/08 00:38:34;;;;;;;19.98;8.38;;;27.00;58.50;;;;;;352698;28;837;-55
2023/09/08 00:38:45;;;;;;;19.48;8.15;;;27.00;58.40;;;;;;352636;28;1058;-55
2023/09/08 00:38:55;;;;;;;19.92;7.72;;;27.00;58.40;;;;;;352511;28;908;-55
2023/09/08 00:39:06;;;;;;;19.77;7.70;;;27.00;58.60;;;;;;352659;28;967;-57
2023/09/08 00:39:17;;;;;;;22.27;7.95;;;27.00;58.60;;;;;;352642;28;1039;-56
2023/09/08 00:39:27;;;;;;;20.13;8.10;;;27.00;58.60;;;;;;352711;28;829;-55
2023/09/08 00:39:38;;;;;;;19.38;8.13;;;27.00;58.70;;;;;;352512;28;1641;-56
2023/09/08 00:39:49;;;;;;;17.27;7.50;;;27.00;58.70;;;;;;352692;28;1031;-55
2023/09/08 00:40:00;;;;;;;18.30;7.30;;;27.00;58.70;;;;;;352676;28;1968;-57
2023/09/08 00:40:10;;;;;;;19.75;7.45;;;27.00;58.80;;;;;;352630;28;1765;-56
2023/09/08 00:40:21;;;;;;;21.80;7.63;;;27.00;58.90;;;;;;352547;28;1804;-56
2023/09/08 00:40:32;;;;;;;20.53;7.50;;;27.00;58.80;;;;;;352669;28;990;-55
2023/09/08 00:40:43;;;;;;;18.27;7.30;;;27.00;58.90;;;;;;352619;28;1149;-55
2023/09/08 00:40:53;;;;;;;16.83;7.35;;;26.90;58.90;;;;;;352620;28;1039;-56
2023/09/08 00:41:07;;;;;;;17.30;7.13;;;27.00;58.80;;;;;;352589;28;1093;-55
2023/09/08 00:41:18;;;;;;;16.70;7.05;;;26.90;58.90;;;;;;352653;28;1185;-57
2023/09/08 00:41:29;;;;;;;17.23;7.70;;;27.00;59.00;;;;;;352650;28;1396;-57
2023/09/08 00:41:39;;;;;;;19.88;7.80;;;26.90;58.80;;;;;;352688;28;971;-56
2023/09/08 00:41:50;;;;;;;21.02;8.27;;;26.90;58.90;;;;;;352556;28;1034;-56
2023/09/08 00:42:01;;;;;;;19.58;7.85;;;27.00;59.20;;;;;;352693;28;999;-56
2023/09/08 00:42:12;;;;;;;20.57;8.20;;;26.90;58.80;;;;;;352620;28;1074;-56
2023/09/08 00:42:22;;;;;;;19.98;7.95;;;26.90;58.90;;;;;;352561;28;1545;-56
2023/09/08 00:42:33;;;;;;;20.20;8.25;;;27.00;58.80;;;;;;352570;28;1023;-56
2023/09/08 00:42:44;;;;;;;18.07;7.87;;;26.90;58.70;;;;;;352628;28;998;-57
2023/09/08 00:42:54;;;;;;;18.75;7.97;;;26.90;58.60;;;;;;352661;28;1062;-56
2023/09/08 00:43:05;;;;;;;18.95;8.05;;;26.90;58.60;;;;;;352662;28;1216;-56
2023/09/08 00:43:17;;;;;;;20.73;7.97;;;26.90;58.60;;;;;;352586;28;861;-57
2023/09/08 00:43:28;;;;;;;20.70;7.60;;;26.90;58.70;;;;;;352645;28;932;-55
2023/09/08 00:43:38;;;;;;;20.10;7.77;;;27.00;58.80;;;;;;352685;28;1014;-56
2023/09/08 00:43:50;;;;;;;22.25;7.78;;;27.00;58.70;;;;;;352632;28;1086;-56
2023/09/08 00:44:01;;;;;;;21.52;7.92;;;26.90;58.60;;;;;;352603;28;968;-56
2023/09/08 00:44:11;;;;;;;20.47;7.73;;;26.90;58.60;;;;;;352712;28;963;-57
2023/09/08 00:44:22;;;;;;;18.65;7.82;;;26.90;58.50;;;;;;352620;28;1098;-56
2023/09/08 00:44:34;;;;;;;18.88;8.10;;;26.90;58.40;;;;;;352723;28;841;-56
2023/09/08 00:44:45;;;;;;;20.67;8.27;;;26.90;58.30;;;;;;352652;28;1015;-56
2023/09/08 00:44:55;;;;;;;22.40;8.30;;;26.90;58.20;;;;;;352558;28;1229;-56
2023/09/08 00:45:06;;;;;;;21.05;7.85;;;26.90;58.20;;;;;;352613;28;856;-56
2023/09/08 00:45:17;;;;;;;18.42;7.50;;;26.90;58.40;;;;;;352707;28;801;-56
2023/09/08 00:45:29;;;;;;;17.52;7.28;;;26.90;58.50;;;;;;352623;28;1277;-58
2023/09/08 00:45:45;;;;;;;19.75;7.40;;;26.90;58.20;;;;;;352559;28;997;-56
2023/09/08 00:45:58;;;;;;;19.25;7.20;;;26.90;57.80;;;;;;352668;28;893;-56
2023/09/08 00:46:09;;;;;;;19.23;7.68;;;26.90;57.70;;;;;;352659;28;1968;-56
2023/09/08 00:46:20;;;;;;;21.00;8.02;;;26.90;57.70;;;;;;352646;28;877;-56
2023/09/08 00:46:31;;;;;;;21.33;8.25;;;26.90;57.90;;;;;;352577;28;1085;-56
2023/09/08 00:46:42;;;;;;;19.83;8.07;;;26.90;58.10;;;;;;352639;28;1126;-57
2023/09/08 00:46:53;;;;;;;20.27;8.00;;;26.90;58.20;;;;;;352640;28;1038;-57
2023/09/08 00:47:04;;;;;;;19.98;7.85;;;26.90;58.10;;;;;;352703;28;829;-57
2023/09/08 00:47:15;;;;;;;20.40;8.20;;;26.90;58.00;;;;;;352569;28;939;-56
2023/09/08 00:47:25;;;;;;;20.35;8.35;;;26.90;58.00;;;;;;352682;28;995;-55
2023/09/08 00:47:36;;;;;;;20.02;8.07;;;26.90;57.90;;;;;;352665;28;1099;-56
2023/09/08 00:47:47;;;;;;;19.57;7.57;;;26.90;57.90;;;;;;352632;28;936;-55
2023/09/08 00:47:58;;;;;;;22.38;7.47;;;26.90;58.00;;;;;;352616;28;1760;-55
2023/09/08 00:48:10;;;;;;;19.75;7.22;;;26.90;58.10;;;;;;352582;28;1090;-56
2023/09/08 00:48:21;;;;;;;19.20;7.57;;;26.90;58.10;;;;;;352674;28;832;-56
2023/09/08 00:48:32;;;;;;;18.52;7.60;;;26.90;58.20;;;;;;352570;28;1153;-57
2023/09/08 00:48:43;;;;;;;19.38;7.93;;;26.90;58.20;;;;;;352587;28;1811;-55
2023/09/08 00:48:55;;;;;;;19.83;7.95;;;26.90;58.20;;;;;;352595;28;881;-56
2023/09/08 00:49:06;;;;;;;20.67;8.25;;;26.90;58.20;;;;;;352637;28;1086;-56
2023/09/08 00:49:17;;;;;;;22.17;8.48;;;26.90;58.00;;;;;;352604;28;1860;-56
2023/09/08 00:49:28;;;;;;;25.30;8.60;;;26.90;57.90;;;;;;352628;28;1173;-57
2023/09/08 00:49:39;;;;;;;22.38;8.18;;;26.90;57.90;;;;;;352611;28;980;-56
2023/09/08 00:49:51;;;;;;;21.27;7.57;;;26.90;57.90;;;;;;352618;28;971;-55
2023/09/08 00:50:04;;;;;;;21.63;7.57;;;26.90;57.90;;;;;;352680;28;916;-56
2023/09/08 00:50:15;;;;;;;20.73;7.93;;;26.90;57.80;;;;;;352557;28;1006;-55
2023/09/08 00:50:26;;;;;;;21.52;7.70;;;26.80;57.90;;;;;;352588;28;1598;-55
2023/09/08 00:50:37;;;;;;;21.17;8.25;;;26.90;58.00;;;;;;352611;28;1094;-56
2023/09/08 00:50:48;;;;;;;27.30;8.55;;;26.80;58.00;;;;;;352578;28;1182;-55
2023/09/08 00:50:59;;;;;;;25.65;8.50;;;26.90;57.90;;;;;;352530;28;1920;-56
2023/09/08 00:51:10;;;;;;;18.17;7.90;;;26.80;57.80;;;;;;352575;28;1332;-56
2023/09/08 00:51:21;;;;;;;16.90;7.97;;;26.90;57.70;;;;;;352697;28;883;-56
2023/09/08 00:51:33;;;;;;;17.92;8.13;;;26.90;57.70;;;;;;352659;27;1890;-56
2023/09/08 00:51:44;;;;;;;20.08;8.25;;;26.90;57.80;;;;;;352587;28;982;-56
2023/09/08 00:51:55;;;;;;;22.05;8.60;;;26.90;57.80;;;;;;352591;28;1248;-56
2023/09/08 00:52:06;;;;;;;22.88;8.88;;;26.90;57.80;;;;;;352598;28;1181;-56
2023/09/08 00:52:17;;;;;;;20.67;8.70;;;26.90;58.00;;;;;;352679;28;824;-55
2023/09/08 00:52:32;;;;;;;21.27;8.40;;;26.90;58.10;;;;;;352537;28;1536;-56
2023/09/08 00:52:43;;;;;;;21.55;8.48;;;26.90;58.10;;;;;;352656;28;832;-56
2023/09/08 00:52:53;;;;;;;22.73;8.80;;;26.90;58.00;;;;;;352644;28;1161;-56
2023/09/08 00:53:05;;;;;;;23.92;9.30;;;26.90;58.00;;;;;;352616;28;1062;-57
2023/09/08 00:53:17;;;;;;;23.15;9.38;;;26.90;58.00;;;;;;352632;28;1189;-56
2023/09/08 00:53:27;;;;;;;20.00;9.20;;;26.90;58.10;;;;;;352592;28;1193;-56
2023/09/08 00:53:38;;;;;;;18.35;8.35;;;26.90;58.10;;;;;;352674;28;1042;-57
2023/09/08 00:53:50;;;;;;;18.58;8.20;;;26.90;58.00;;;;;;352575;28;958;-56
2023/09/08 00:54:01;;;;;;;18.48;7.85;;;26.90;58.00;;;;;;352639;28;1126;-56
2023/09/08 00:54:11;;;;;;;16.77;7.75;;;26.90;58.00;;;;;;352618;28;1011;-56
2023/09/08 00:54:22;;;;;;;16.05;7.75;;;26.90;57.90;;;;;;352712;28;996;-56
2023/09/08 00:54:33;;;;;;;18.58;8.20;;;26.90;57.80;;;;;;352525;28;1063;-56
2023/09/08 00:54:44;;;;;;;19.77;7.97;;;26.90;57.70;;;;;;352535;28;1975;-56
2023/09/08 00:54:54;;;;;;;20.10;8.13;;;26.90;57.60;;;;;;352674;28;995;-56
2023/09/08 00:55:06;;;;;;;19.35;8.05;;;26.90;57.60;;;;;;352648;28;975;-55
2023/09/08 00:55:17;;;;;;;19.98;8.23;;;26.90;57.50;;;;;;352540;28;1045;-56
2023/09/08 00:55:29;;;;;;;18.30;7.70;;;26.90;57.50;;;;;;352615;28;1120;-56
2023/09/08 00:55:41;;;;;;;17.30;7.47;;;26.90;57.40;;;;;;352627;28;1113;-57
2023/09/08 00:55:52;;;;;;;18.77;7.95;;;26.90;57.40;;;;;;352580;28;1121;-55
2023/09/08 00:56:03;;;;;;;20.08;8.15;;;26.90;57.40;;;;;;352584;28;1049;-55
2023/09/08 00:56:13;;;;;;;19.10;7.73;;;26.90;57.40;;;;;;352581;28;1235;-56
2023/09/08 00:56:24;;;;;;;18.07;7.43;;;26.90;57.40;;;;;;352578;28;1442;-56
2023/09/08 00:56:37;;;;;;;17.00;7.32;;;26.90;57.40;;;;;;352687;28;846;-56
2023/09/08 00:56:52;;;;;;;17.83;7.65;;;26.90;57.40;;;;;;352527;28;1101;-55
2023/09/08 00:57:05;;;;;;;18.75;7.93;;;26.90;57.40;;;;;;352627;27;1015;-56
2023/09/08 00:57:16;;;;;;;20.45;8.43;;;26.90;57.40;;;;;;352572;28;1698;-56
2023/09/08 00:57:27;;;;;;;22.67;8.55;;;26.90;57.40;;;;;;352607;28;988;-56
2023/09/08 00:57:38;;;;;;;23.73;8.37;;;26.90;57.50;;;;;;352607;28;887;-55
2023/09/08 00:57:49;;;;;;;22.17;8.40;;;26.90;57.50;;;;;;352610;28;1046;-55
2023/09/08 00:58:00;;;;;;;18.90;8.05;;;26.90;57.40;;;;;;352649;28;1078;-55
2023/09/08 00:58:11;;;;;;;16.55;7.72;;;26.80;57.50;;;;;;352597;28;1228;-56
2023/09/08 00:58:22;;;;;;;15.80;7.60;;;26.90;57.50;;;;;;352580;28;887;-56
2023/09/08 00:58:33;;;;;;;15.37;7.67;;;26.90;57.60;;;;;;352608;28;1195;-56
2023/09/08 00:58:44;;;;;;;17.20;8.00;;;26.90;57.70;;;;;;352711;28;859;-56
2023/09/08 00:58:55;;;;;;;17.75;7.95;;;26.80;57.70;;;;;;352606;28;968;-55